ENSB/LYR METAR and TAF weather

Enter ICAO airport designator
Station Type Date Time Source
ENSB METAR 2020/09/20 07:20 UTC NOAA

ENSB 200720Z 13010KT 9999 FEW015 SCT035 BKN070 03/M01 Q0994 RMK WIND 1400FT 12015KT


Station Type Date Time Source
ENSB Decoded METAR 2020/09/20 07:20 UTC NOAA

Svalbard Lufthavn, Norway (ENSB) 78-15N 015-28E 29M
Sep 20, 2020 - 03:20 AM EDT / 2020.09.20 0720 UTC
Wind: from the SE (130 degrees) at 12 MPH (10 KT):0
Visibility: greater than 7 mile(s):0
Sky conditions: mostly cloudy
Temperature: 37 F (3 C)
Dew Point: 30 F (-1 C)
Relative Humidity: 74%
Pressure (altimeter): 29.35 in. Hg (0994 hPa)
ob: ENSB 200720Z 13010KT 9999 FEW015 SCT035 BKN070 03/M01 Q0994 RMK WIND 1400FT 12015KT
cycle: 7

Station Type Date Time Source
ENSB TAF 2020/09/20 06:57 UTC NOAA

TAF ENSB 200500Z 2006/2106 12009KT 9999 FEW010 BKN020

Example: see airport list